sensor_id;sensor_type;location;lat;lon;timestamp;pressure;altitude;pressure_sealevel;temperature;humidity
41886;BME280;27567;43.084;25.616;2022-08-25T00:01:21;97972.50;;;20.26;100.00
41886;BME280;27567;43.084;25.616;2022-08-25T00:04:08;97979.03;;;20.20;100.00
41886;BME280;27567;43.084;25.616;2022-08-25T00:06:53;97970.31;;;20.18;100.00
41886;BME280;27567;43.084;25.616;2022-08-25T00:09:38;97969.78;;;20.16;100.00
41886;BME280;27567;43.084;25.616;2022-08-25T00:12:22;97961.34;;;20.12;100.00
41886;BME280;27567;43.084;25.616;2022-08-25T00:15:06;97961.91;;;20.14;100.00
41886;BME280;27567;43.084;25.616;2022-08-25T00:17:51;97964.63;;;20.04;100.00
41886;BME280;27567;43.084;25.616;2022-08-25T00:20:36;97968.16;;;20.15;100.00
41886;BME280;27567;43.084;25.616;2022-08-25T00:23:20;97967.88;;;20.32;100.00
41886;BME280;27567;43.084;25.616;2022-08-25T00:26:05;97961.03;;;20.39;100.00
41886;BME280;27567;43.084;25.616;2022-08-25T00:28:49;97956.69;;;20.49;100.00
41886;BME280;27567;43.084;25.616;2022-08-25T00:31:34;97965.94;;;20.48;100.00
41886;BME280;27567;43.084;25.616;2022-08-25T00:34:22;97956.69;;;20.38;100.00
41886;BME280;27567;43.084;25.616;2022-08-25T00:37:09;97958.91;;;20.26;100.00
41886;BME280;27567;43.084;25.616;2022-08-25T00:39:53;97953.72;;;20.04;100.00
41886;BME280;27567;43.084;25.616;2022-08-25T00:42:39;97947.19;;;19.84;100.00
41886;BME280;27567;43.084;25.616;2022-08-25T00:45:24;97953.72;;;19.73;100.00
41886;BME280;27567;43.084;25.616;2022-08-25T00:48:08;97946.63;;;19.66;100.00
41886;BME280;27567;43.084;25.616;2022-08-25T00:50:51;97945.25;;;19.64;100.00
41886;BME280;27567;43.084;25.616;2022-08-25T00:53:36;97948.25;;;19.62;100.00
41886;BME280;27567;43.084;25.616;2022-08-25T00:56:21;97937.41;;;19.67;100.00
41886;BME280;27567;43.084;25.616;2022-08-25T00:59:07;97941.47;;;19.70;100.00
41886;BME280;27567;43.084;25.616;2022-08-25T01:01:51;97935.50;;;19.73;100.00
41886;BME280;27567;43.084;25.616;2022-08-25T01:04:36;97934.13;;;19.81;100.00
41886;BME280;27567;43.084;25.616;2022-08-25T01:07:20;97936.59;;;19.88;100.00
41886;BME280;27567;43.084;25.616;2022-08-25T01:10:07;97929.78;;;19.85;100.00
41886;BME280;27567;43.084;25.616;2022-08-25T01:13:02;97924.06;;;19.81;100.00
41886;BME280;27567;43.084;25.616;2022-08-25T01:15:53;97925.97;;;19.81;100.00
41886;BME280;27567;43.084;25.616;2022-08-25T01:18:55;97916.47;;;19.89;100.00
41886;BME280;27567;43.084;25.616;2022-08-25T01:21:44;97916.22;;;19.90;100.00
41886;BME280;27567;43.084;25.616;2022-08-25T01:24:46;97908.59;;;19.92;100.00
41886;BME280;27567;43.084;25.616;2022-08-25T01:27:33;97912.41;;;19.91;100.00
41886;BME280;27567;43.084;25.616;2022-08-25T01:30:17;97907.50;;;19.88;100.00
41886;BME280;27567;43.084;25.616;2022-08-25T01:33:04;97914.28;;;19.86;100.00
41886;BME280;27567;43.084;25.616;2022-08-25T01:35:48;97912.91;;;19.83;100.00
41886;BME280;27567;43.084;25.616;2022-08-25T01:38:32;97915.38;;;19.79;100.00
41886;BME280;27567;43.084;25.616;2022-08-25T01:42:08;97911.56;;;19.75;100.00
41886;BME280;27567;43.084;25.616;2022-08-25T01:44:55;97916.47;;;19.73;100.00
41886;BME280;27567;43.084;25.616;2022-08-25T01:47:40;97909.38;;;19.72;100.00
41886;BME280;27567;43.084;25.616;2022-08-25T01:50:24;97909.66;;;19.71;100.00
41886;BME280;27567;43.084;25.616;2022-08-25T01:53:17;97912.09;;;19.67;100.00
41886;BME280;27567;43.084;25.616;2022-08-25T01:56:14;97900.13;;;19.63;100.00
41886;BME280;27567;43.084;25.616;2022-08-25T01:58:58;97901.50;;;19.60;100.00
41886;BME280;27567;43.084;25.616;2022-08-25T02:01:42;97897.16;;;19.59;100.00
41886;BME280;27567;43.084;25.616;2022-08-25T02:04:27;97906.38;;;19.53;100.00
41886;BME280;27567;43.084;25.616;2022-08-25T02:07:14;97902.03;;;19.52;100.00
41886;BME280;27567;43.084;25.616;2022-08-25T02:09:59;97893.06;;;19.46;100.00
41886;BME280;27567;43.084;25.616;2022-08-25T02:12:43;97902.59;;;19.49;100.00
41886;BME280;27567;43.084;25.616;2022-08-25T02:15:27;97890.88;;;19.48;100.00
41886;BME280;27567;43.084;25.616;2022-08-25T02:18:11;97885.47;;;19.53;100.00
41886;BME280;27567;43.084;25.616;2022-08-25T02:20:55;97888.72;;;19.50;100.00
41886;BME280;27567;43.084;25.616;2022-08-25T02:23:40;97882.72;;;19.48;100.00
41886;BME280;27567;43.084;25.616;2022-08-25T02:26:24;97889.25;;;19.47;100.00
41886;BME280;27567;43.084;25.616;2022-08-25T02:29:09;97897.69;;;19.46;100.00
41886;BME280;27567;43.084;25.616;2022-08-25T02:31:53;97895.50;;;19.43;100.00
41886;BME280;27567;43.084;25.616;2022-08-25T02:34:37;97895.22;;;19.39;100.00
41886;BME280;27567;43.084;25.616;2022-08-25T02:37:23;97903.63;;;19.32;100.00
41886;BME280;27567;43.084;25.616;2022-08-25T02:40:08;97902.00;;;19.26;100.00
41886;BME280;27567;43.084;25.616;2022-08-25T02:42:52;97892.22;;;19.20;100.00
41886;BME280;27567;43.084;25.616;2022-08-25T02:45:36;97894.91;;;19.15;100.00
41886;BME280;27567;43.084;25.616;2022-08-25T02:48:21;97902.81;;;19.11;100.00
41886;BME280;27567;43.084;25.616;2022-08-25T02:51:08;97905.25;;;19.13;100.00
41886;BME280;27567;43.084;25.616;2022-08-25T02:53:53;97902.25;;;19.09;100.00
41886;BME280;27567;43.084;25.616;2022-08-25T02:56:37;97901.69;;;19.07;100.00
41886;BME280;27567;43.084;25.616;2022-08-25T02:59:21;97893.81;;;19.05;100.00
41886;BME280;27567;43.084;25.616;2022-08-25T03:02:05;97894.34;;;19.02;100.00
41886;BME280;27567;43.084;25.616;2022-08-25T03:04:51;97900.31;;;18.99;100.00
41886;BME280;27567;43.084;25.616;2022-08-25T03:07:35;97904.41;;;19.02;100.00
41886;BME280;27567;43.084;25.616;2022-08-25T03:10:21;97899.22;;;18.95;100.00
41886;BME280;27567;43.084;25.616;2022-08-25T03:13:05;97901.09;;;18.89;100.00
41886;BME280;27567;43.084;25.616;2022-08-25T03:15:49;97888.03;;;18.91;100.00
41886;BME280;27567;43.084;25.616;2022-08-25T03:18:34;97890.22;;;18.89;100.00
41886;BME280;27567;43.084;25.616;2022-08-25T03:21:18;97891.63;;;19.02;100.00
41886;BME280;27567;43.084;25.616;2022-08-25T03:24:02;97895.19;;;19.08;100.00
41886;BME280;27567;43.084;25.616;2022-08-25T03:26:46;97894.91;;;19.10;100.00
41886;BME280;27567;43.084;25.616;2022-08-25T03:29:36;97902.78;;;19.16;100.00
41886;BME280;27567;43.084;25.616;2022-08-25T03:32:21;97896.00;;;19.14;100.00
41886;BME280;27567;43.084;25.616;2022-08-25T03:35:07;97892.22;;;19.15;100.00
41886;BME280;27567;43.084;25.616;2022-08-25T03:37:55;97893.03;;;19.20;100.00
41886;BME280;27567;43.084;25.616;2022-08-25T03:40:39;97882.41;;;19.14;100.00
41886;BME280;27567;43.084;25.616;2022-08-25T03:43:23;97892.75;;;19.12;100.00
41886;BME280;27567;43.084;25.616;2022-08-25T03:46:08;97904.44;;;19.12;100.00
41886;BME280;27567;43.084;25.616;2022-08-25T03:48:52;97913.38;;;19.13;100.00
41886;BME280;27567;43.084;25.616;2022-08-25T03:51:40;97905.78;;;19.15;100.00
41886;BME280;27567;43.084;25.616;2022-08-25T03:54:25;97907.94;;;19.13;100.00
41886;BME280;27567;43.084;25.616;2022-08-25T03:57:09;97910.97;;;19.21;100.00
41886;BME280;27567;43.084;25.616;2022-08-25T03:59:53;97921.28;;;19.25;100.00
41886;BME280;27567;43.084;25.616;2022-08-25T04:02:39;97915.06;;;19.34;100.00
41886;BME280;27567;43.084;25.616;2022-08-25T04:05:23;97918.34;;;19.57;100.00
41886;BME280;27567;43.084;25.616;2022-08-25T04:08:07;97923.25;;;19.60;100.00
41886;BME280;27567;43.084;25.616;2022-08-25T04:10:51;97919.97;;;19.58;100.00
41886;BME280;27567;43.084;25.616;2022-08-25T04:13:36;97918.91;;;19.80;100.00
41886;BME280;27567;43.084;25.616;2022-08-25T04:16:28;97914.56;;;19.74;100.00
41886;BME280;27567;43.084;25.616;2022-08-25T04:19:15;97924.06;;;19.66;100.00
41886;BME280;27567;43.084;25.616;2022-08-25T04:22:00;97922.97;;;19.57;100.00
41886;BME280;27567;43.084;25.616;2022-08-25T04:24:44;97928.97;;;19.59;100.00
41886;BME280;27567;43.084;25.616;2022-08-25T04:27:28;97917.53;;;19.67;100.00
41886;BME280;27567;43.084;25.616;2022-08-25T04:30:12;97909.94;;;19.74;100.00
41886;BME280;27567;43.084;25.616;2022-08-25T04:32:56;97909.41;;;19.88;100.00
41886;BME280;27567;43.084;25.616;2022-08-25T04:35:46;97911.88;;;19.89;100.00
41886;BME280;27567;43.084;25.616;2022-08-25T04:38:31;97909.16;;;19.94;100.00
41886;BME280;27567;43.084;25.616;2022-08-25T04:41:19;97914.28;;;20.06;100.00
41886;BME280;27567;43.084;25.616;2022-08-25T04:44:04;97911.53;;;20.11;100.00
41886;BME280;27567;43.084;25.616;2022-08-25T04:46:49;97911.28;;;20.13;100.00
41886;BME280;27567;43.084;25.616;2022-08-25T04:49:34;97908.56;;;20.18;100.00
41886;BME280;27567;43.084;25.616;2022-08-25T04:52:18;97906.09;;;20.11;100.00
41886;BME280;27567;43.084;25.616;2022-08-25T04:55:03;97906.09;;;20.22;100.00
41886;BME280;27567;43.084;25.616;2022-08-25T04:57:47;97895.75;;;20.29;100.00
41886;BME280;27567;43.084;25.616;2022-08-25T05:00:34;97897.09;;;20.26;100.00
41886;BME280;27567;43.084;25.616;2022-08-25T05:03:18;97888.94;;;20.32;100.00
41886;BME280;27567;43.084;25.616;2022-08-25T05:06:03;97898.19;;;20.36;100.00
41886;BME280;27567;43.084;25.616;2022-08-25T05:08:48;97896.53;;;20.35;100.00
41886;BME280;27567;43.084;25.616;2022-08-25T05:11:32;97888.63;;;20.43;100.00
41886;BME280;27567;43.084;25.616;2022-08-25T05:14:16;97890.81;;;20.41;100.00
41886;BME280;27567;43.084;25.616;2022-08-25T05:17:05;97891.03;;;20.55;100.00
41886;BME280;27567;43.084;25.616;2022-08-25T05:19:49;97890.41;;;20.74;100.00
41886;BME280;27567;43.084;25.616;2022-08-25T05:22:33;97885.81;;;20.80;100.00
41886;BME280;27567;43.084;25.616;2022-08-25T05:25:17;97887.09;;;20.93;100.00
41886;BME280;27567;43.084;25.616;2022-08-25T05:28:02;97896.84;;;20.99;100.00
41886;BME280;27567;43.084;25.616;2022-08-25T05:30:46;97912.13;;;20.95;100.00
41886;BME280;27567;43.084;25.616;2022-08-25T05:33:35;97906.94;;;20.98;100.00
41886;BME280;27567;43.084;25.616;2022-08-25T05:36:20;97899.56;;;20.99;100.00
41886;BME280;27567;43.084;25.616;2022-08-25T05:39:04;97907.16;;;21.07;100.00
41886;BME280;27567;43.084;25.616;2022-08-25T05:41:49;97912.63;;;21.07;100.00
41886;BME280;27567;43.084;25.616;2022-08-25T05:44:33;97915.25;;;21.23;100.00
41886;BME280;27567;43.084;25.616;2022-08-25T05:47:17;97916.41;;;21.11;100.00
41886;BME280;27567;43.084;25.616;2022-08-25T05:50:01;97922.44;;;21.08;100.00
41886;BME280;27567;43.084;25.616;2022-08-25T05:52:44;97926.72;;;21.20;100.00
41886;BME280;27567;43.084;25.616;2022-08-25T05:55:29;97934.66;;;21.11;100.00
41886;BME280;27567;43.084;25.616;2022-08-25T05:58:14;97934.38;;;21.17;100.00
41886;BME280;27567;43.084;25.616;2022-08-25T06:00:59;97931.13;;;21.15;100.00
41886;BME280;27567;43.084;25.616;2022-08-25T06:04:04;97940.16;;;21.06;100.00
41886;BME280;27567;43.084;25.616;2022-08-25T06:06:48;97923.13;;;21.29;100.00
41886;BME280;27567;43.084;25.616;2022-08-25T06:09:37;97912.16;;;21.40;100.00
41886;BME280;27567;43.084;25.616;2022-08-25T06:12:22;97907.25;;;21.37;100.00
41886;BME280;27567;43.084;25.616;2022-08-25T06:15:07;97911.78;;;21.52;100.00
41886;BME280;27567;43.084;25.616;2022-08-25T06:17:51;97900.91;;;21.46;100.00
41886;BME280;27567;43.084;25.616;2022-08-25T06:20:35;97909.16;;;21.41;100.00
41886;BME280;27567;43.084;25.616;2022-08-25T06:23:19;97905.41;;;21.72;100.00
41886;BME280;27567;43.084;25.616;2022-08-25T06:26:03;97898.72;;;21.88;100.00
41886;BME280;27567;43.084;25.616;2022-08-25T06:28:51;97896.47;;;21.96;100.00
41886;BME280;27567;43.084;25.616;2022-08-25T06:31:35;97895.38;;;21.97;100.00
41886;BME280;27567;43.084;25.616;2022-08-25T06:34:19;97885.56;;;21.96;100.00
41886;BME280;27567;43.084;25.616;2022-08-25T06:37:04;97898.06;;;22.02;100.00
41886;BME280;27567;43.084;25.616;2022-08-25T06:39:48;97887.47;;;22.25;100.00
41886;BME280;27567;43.084;25.616;2022-08-25T06:42:32;97887.97;;;22.27;100.00
41886;BME280;27567;43.084;25.616;2022-08-25T06:45:16;97885.56;;;21.96;100.00
41886;BME280;27567;43.084;25.616;2022-08-25T06:48:01;97887.53;;;21.90;100.00
41886;BME280;27567;43.084;25.616;2022-08-25T06:50:45;97896.16;;;21.97;100.00
41886;BME280;27567;43.084;25.616;2022-08-25T06:53:28;97875.84;;;22.14;100.00
41886;BME280;27567;43.084;25.616;2022-08-25T06:56:13;97873.56;;;22.70;100.00
41886;BME280;27567;43.084;25.616;2022-08-25T06:59:00;97876.13;;;22.85;100.00
41886;BME280;27567;43.084;25.616;2022-08-25T07:01:44;97876.47;;;22.78;100.00
41886;BME280;27567;43.084;25.616;2022-08-25T07:04:28;97870.91;;;23.27;100.00
41886;BME280;27567;43.084;25.616;2022-08-25T07:07:12;97861.44;;;23.38;100.00
41886;BME280;27567;43.084;25.616;2022-08-25T07:09:57;97873.03;;;23.30;100.00
41886;BME280;27567;43.084;25.616;2022-08-25T07:12:41;97873.09;;;23.25;100.00
41886;BME280;27567;43.084;25.616;2022-08-25T07:15:25;97874.59;;;22.98;100.00
41886;BME280;27567;43.084;25.616;2022-08-25T07:18:09;97873.03;;;23.30;100.00
41886;BME280;27567;43.084;25.616;2022-08-25T07:20:54;97879.47;;;23.59;100.00
41886;BME280;27567;43.084;25.616;2022-08-25T07:23:40;97866.19;;;23.33;100.00
41886;BME280;27567;43.084;25.616;2022-08-25T07:26:28;97860.78;;;23.27;100.00
41886;BME280;27567;43.084;25.616;2022-08-25T07:29:24;97867.28;;;23.32;100.00
41886;BME280;27567;43.084;25.616;2022-08-25T07:32:09;97871.72;;;23.47;100.00
41886;BME280;27567;43.084;25.616;2022-08-25T07:34:53;97875.09;;;23.71;100.00
41886;BME280;27567;43.084;25.616;2022-08-25T07:37:57;97878.03;;;23.94;100.00
41886;BME280;27567;43.084;25.616;2022-08-25T07:40:41;97882.69;;;23.94;100.00
41886;BME280;27567;43.084;25.616;2022-08-25T07:43:26;97880.19;;;23.97;100.00
41886;BME280;27567;43.084;25.616;2022-08-25T07:46:10;97880.94;;;24.45;100.00
41886;BME280;27567;43.084;25.616;2022-08-25T07:48:54;97884.19;;;24.61;100.00
41886;BME280;27567;43.084;25.616;2022-08-25T07:51:38;97887.16;;;24.51;100.00
41886;BME280;27567;43.084;25.616;2022-08-25T07:54:22;97881.63;;;24.09;100.00
41886;BME280;27567;43.084;25.616;2022-08-25T07:57:07;97889.66;;;24.05;100.00
41886;BME280;27567;43.084;25.616;2022-08-25T07:59:52;97890.97;;;24.22;100.00
41886;BME280;27567;43.084;25.616;2022-08-25T08:02:38;97889.47;;;23.96;100.00
41886;BME280;27567;43.084;25.616;2022-08-25T08:05:23;97888.25;;;24.36;100.00
41886;BME280;27567;43.084;25.616;2022-08-25T08:08:08;97877.78;;;24.24;100.00
41886;BME280;27567;43.084;25.616;2022-08-25T08:10:52;97886.72;;;24.29;100.00
41886;BME280;27567;43.084;25.616;2022-08-25T08:13:36;97890.69;;;24.37;100.00
41886;BME280;27567;43.084;25.616;2022-08-25T08:16:22;97884.91;;;24.39;100.00
41886;BME280;27567;43.084;25.616;2022-08-25T08:19:06;97890.88;;;24.69;100.00
41886;BME280;27567;43.084;25.616;2022-08-25T08:21:50;97880.66;;;24.74;100.00
41886;BME280;27567;43.084;25.616;2022-08-25T08:24:34;97884.09;;;24.80;100.00
41886;BME280;27567;43.084;25.616;2022-08-25T08:27:22;97883.06;;;24.90;100.00
41886;BME280;27567;43.084;25.616;2022-08-25T08:30:07;97883.78;;;24.82;100.00
41886;BME280;27567;43.084;25.616;2022-08-25T08:32:55;97871.09;;;25.59;100.00
41886;BME280;27567;43.084;25.616;2022-08-25T08:35:40;97873.16;;;25.54;100.00
41886;BME280;27567;43.084;25.616;2022-08-25T08:38:24;97874.84;;;25.63;100.00
41886;BME280;27567;43.084;25.616;2022-08-25T08:50:42;97891.28;;;24.62;100.00
41886;BME280;27567;43.084;25.616;2022-08-25T08:53:48;97894.00;;;25.04;100.00
41886;BME280;27567;43.084;25.616;2022-08-25T08:56:38;97891.13;;;24.72;100.00
41886;BME280;27567;43.084;25.616;2022-08-25T08:59:24;97883.56;;;24.92;100.00
41886;BME280;27567;43.084;25.616;2022-08-25T09:02:24;97900.63;;;25.03;100.00
41886;BME280;27567;43.084;25.616;2022-08-25T09:05:13;97890.19;;;24.91;100.00
41886;BME280;27567;43.084;25.616;2022-08-25T09:08:05;97885.78;;;25.04;100.00
41886;BME280;27567;43.084;25.616;2022-08-25T09:21:07;97874.16;;;27.28;100.00
41886;BME280;27567;43.084;25.616;2022-08-25T09:24:11;97864.28;;;26.92;100.00
41886;BME280;27567;43.084;25.616;2022-08-25T09:27:24;97864.13;;;26.48;100.00
41886;BME280;27567;43.084;25.616;2022-08-25T09:30:18;97860.06;;;27.21;100.00
41886;BME280;27567;43.084;25.616;2022-08-25T09:33:03;97857.16;;;27.08;100.00
41886;BME280;27567;43.084;25.616;2022-08-25T09:35:48;97857.41;;;26.71;100.00
41886;BME280;27567;43.084;25.616;2022-08-25T09:38:33;97852.88;;;26.58;100.00
41886;BME280;27567;43.084;25.616;2022-08-25T09:41:42;97861.19;;;26.35;100.00
41886;BME280;27567;43.084;25.616;2022-08-25T09:50:02;97838.31;;;26.66;100.00
41886;BME280;27567;43.084;25.616;2022-08-25T09:52:47;97830.97;;;26.35;100.00
41886;BME280;27567;43.084;25.616;2022-08-25T09:55:32;97827.66;;;26.65;100.00
41886;BME280;27567;43.084;25.616;2022-08-25T09:58:22;97828.00;;;26.72;100.00
41886;BME280;27567;43.084;25.616;2022-08-25T10:01:27;97824.31;;;26.28;100.00
41886;BME280;27567;43.084;25.616;2022-08-25T10:07:29;97822.44;;;26.54;100.00
41886;BME280;27567;43.084;25.616;2022-08-25T10:10:45;97830.97;;;27.28;100.00
41886;BME280;27567;43.084;25.616;2022-08-25T10:13:40;97822.22;;;27.18;100.00
41886;BME280;27567;43.084;25.616;2022-08-25T10:16:31;97816.22;;;27.68;100.00
41886;BME280;27567;43.084;25.616;2022-08-25T10:19:27;97806.78;;;29.74;100.00
41886;BME280;27567;43.084;25.616;2022-08-25T10:22:22;97815.13;;;31.39;100.00
41886;BME280;27567;43.084;25.616;2022-08-25T10:25:10;97814.97;;;32.08;100.00
41886;BME280;27567;43.084;25.616;2022-08-25T10:37:17;97810.13;;;31.45;100.00
41886;BME280;27567;43.084;25.616;2022-08-25T10:40:20;97801.19;;;34.25;82.42
41886;BME280;27567;43.084;25.616;2022-08-25T10:46:19;97810.13;;;32.21;92.83
41886;BME280;27567;43.084;25.616;2022-08-25T10:49:24;97801.47;;;30.40;100.00
41886;BME280;27567;43.084;25.616;2022-08-25T10:52:22;97816.38;;;29.22;100.00
41886;BME280;27567;43.084;25.616;2022-08-25T10:55:26;97787.09;;;31.57;100.00
41886;BME280;27567;43.084;25.616;2022-08-25T10:58:28;97789.72;;;33.60;87.93
41886;BME280;27567;43.084;25.616;2022-08-25T11:04:22;97787.69;;;33.57;83.31
41886;BME280;27567;43.084;25.616;2022-08-25T11:07:33;97791.00;;;32.84;90.54
41886;BME280;27567;43.084;25.616;2022-08-25T11:10:25;97789.00;;;33.63;86.18
41886;BME280;27567;43.084;25.616;2022-08-25T11:13:36;97775.34;;;34.78;77.55
41886;BME280;27567;43.084;25.616;2022-08-25T11:16:50;97776.53;;;34.50;79.71
41886;BME280;27567;43.084;25.616;2022-08-25T11:19:38;97776.00;;;36.11;68.73
41886;BME280;27567;43.084;25.616;2022-08-25T11:22:25;97775.97;;;40.59;44.72
41886;BME280;27567;43.084;25.616;2022-08-25T11:25:33;97770.84;;;38.09;54.04
41886;BME280;27567;43.084;25.616;2022-08-25T11:31:24;97762.47;;;40.01;45.47
41886;BME280;27567;43.084;25.616;2022-08-25T11:34:12;97766.00;;;37.55;55.76
41886;BME280;27567;43.084;25.616;2022-08-25T11:37:14;97770.00;;;37.86;56.15
41886;BME280;27567;43.084;25.616;2022-08-25T11:40:18;97763.28;;;36.18;63.22
41886;BME280;27567;43.084;25.616;2022-08-25T12:04:38;97756.44;;;37.85;57.47
41886;BME280;27567;43.084;25.616;2022-08-25T12:07:57;97746.88;;;40.42;42.21
41886;BME280;27567;43.084;25.616;2022-08-25T12:11:01;97750.19;;;39.13;46.28
41886;BME280;27567;43.084;25.616;2022-08-25T12:13:47;97741.97;;;37.32;54.98
41886;BME280;27567;43.084;25.616;2022-08-25T12:19:47;97737.13;;;39.59;44.74
41886;BME280;27567;43.084;25.616;2022-08-25T12:25:31;97732.88;;;41.90;35.50
41886;BME280;27567;43.084;25.616;2022-08-25T12:29:20;97727.81;;;40.61;37.04
41886;BME280;27567;43.084;25.616;2022-08-25T12:34:53;97726.69;;;40.89;34.10
41886;BME280;27567;43.084;25.616;2022-08-25T12:38:01;97728.44;;;37.49;49.03
41886;BME280;27567;43.084;25.616;2022-08-25T12:43:34;97715.81;;;34.86;62.37
41886;BME280;27567;43.084;25.616;2022-08-25T12:49:31;97707.22;;;37.19;46.64
41886;BME280;27567;43.084;25.616;2022-08-25T12:52:19;97702.13;;;38.04;42.58
41886;BME280;27567;43.084;25.616;2022-08-25T12:55:09;97711.28;;;39.86;35.03
41886;BME280;27567;43.084;25.616;2022-08-25T12:57:55;97717.13;;;41.41;31.31
41886;BME280;27567;43.084;25.616;2022-08-25T13:01:11;97708.50;;;39.22;35.72
41886;BME280;27567;43.084;25.616;2022-08-25T13:10:14;97699.84;;;40.84;30.30
41886;BME280;27567;43.084;25.616;2022-08-25T13:13:30;97696.84;;;38.49;35.19
41886;BME280;27567;43.084;25.616;2022-08-25T13:16:20;97687.94;;;39.47;35.01
41886;BME280;27567;43.084;25.616;2022-08-25T13:19:06;97680.94;;;39.14;35.09
41886;BME280;27567;43.084;25.616;2022-08-25T13:21:50;97687.53;;;42.52;28.80
41886;BME280;27567;43.084;25.616;2022-08-25T13:24:40;97678.13;;;37.74;32.86
41886;BME280;27567;43.084;25.616;2022-08-25T13:27:26;97683.50;;;35.12;43.83
41886;BME280;27567;43.084;25.616;2022-08-25T13:30:22;97675.63;;;35.21;44.43
41886;BME280;27567;43.084;25.616;2022-08-25T13:33:18;97660.97;;;36.36;38.94
41886;BME280;27567;43.084;25.616;2022-08-25T13:36:02;97668.47;;;37.06;36.74
41886;BME280;27567;43.084;25.616;2022-08-25T13:39:23;97669.28;;;37.25;37.01
41886;BME280;27567;43.084;25.616;2022-08-25T13:42:15;97657.97;;;38.66;34.07
41886;BME280;27567;43.084;25.616;2022-08-25T13:44:59;97658.22;;;39.01;32.14
41886;BME280;27567;43.084;25.616;2022-08-25T13:47:45;97656.34;;;39.92;29.13
41886;BME280;27567;43.084;25.616;2022-08-25T13:50:31;97664.44;;;39.30;30.10
41886;BME280;27567;43.084;25.616;2022-08-25T13:53:24;97642.09;;;40.14;26.20
41886;BME280;27567;43.084;25.616;2022-08-25T13:56:08;97650.25;;;39.97;27.52
41886;BME280;27567;43.084;25.616;2022-08-25T13:58:54;97644.69;;;39.94;26.88
41886;BME280;27567;43.084;25.616;2022-08-25T14:01:44;97646.78;;;41.21;25.54
41886;BME280;27567;43.084;25.616;2022-08-25T14:04:43;97643.63;;;38.53;28.51
41886;BME280;27567;43.084;25.616;2022-08-25T14:07:29;97639.78;;;37.74;29.95
41886;BME280;27567;43.084;25.616;2022-08-25T14:10:44;97624.34;;;38.73;27.30
41886;BME280;27567;43.084;25.616;2022-08-25T14:13:30;97628.34;;;38.72;27.83
41886;BME280;27567;43.084;25.616;2022-08-25T14:16:21;97636.22;;;37.45;29.11
41886;BME280;27567;43.084;25.616;2022-08-25T14:19:12;97632.06;;;36.74;31.08
41886;BME280;27567;43.084;25.616;2022-08-25T14:21:58;97632.13;;;38.26;29.16
41886;BME280;27567;43.084;25.616;2022-08-25T14:24:45;97619.00;;;37.90;29.05
41886;BME280;27567;43.084;25.616;2022-08-25T14:27:29;97628.22;;;37.76;29.71
41886;BME280;27567;43.084;25.616;2022-08-25T14:30:13;97621.28;;;38.42;27.77
41886;BME280;27567;43.084;25.616;2022-08-25T14:32:59;97617.19;;;38.61;26.79
41886;BME280;27567;43.084;25.616;2022-08-25T14:35:47;97618.44;;;38.46;26.96
41886;BME280;27567;43.084;25.616;2022-08-25T14:38:32;97622.09;;;36.69;30.44
41886;BME280;27567;43.084;25.616;2022-08-25T14:41:17;97614.31;;;36.22;31.26
41886;BME280;27567;43.084;25.616;2022-08-25T14:44:03;97621.25;;;34.29;35.74
41886;BME280;27567;43.084;25.616;2022-08-25T14:46:52;97616.88;;;33.47;40.25
41886;BME280;27567;43.084;25.616;2022-08-25T14:49:39;97622.16;;;32.86;43.37
41886;BME280;27567;43.084;25.616;2022-08-25T14:52:27;97610.38;;;32.34;44.45
41886;BME280;27567;43.084;25.616;2022-08-25T14:55:13;97610.31;;;31.95;47.81
41886;BME280;27567;43.084;25.616;2022-08-25T14:57:57;97612.63;;;32.08;47.96
41886;BME280;27567;43.084;25.616;2022-08-25T15:00:43;97610.09;;;31.68;49.63
41886;BME280;27567;43.084;25.616;2022-08-25T15:03:51;97615.38;;;31.57;50.93
41886;BME280;27567;43.084;25.616;2022-08-25T15:06:37;97611.34;;;31.54;49.64
41886;BME280;27567;43.084;25.616;2022-08-25T15:09:21;97616.78;;;31.67;51.90
41886;BME280;27567;43.084;25.616;2022-08-25T15:12:06;97618.47;;;31.87;49.60
41886;BME280;27567;43.084;25.616;2022-08-25T15:14:50;97612.59;;;31.89;51.36
41886;BME280;27567;43.084;25.616;2022-08-25T15:17:34;97609.47;;;31.58;51.06
41886;BME280;27567;43.084;25.616;2022-08-25T15:20:18;97607.78;;;31.54;49.15
41886;BME280;27567;43.084;25.616;2022-08-25T15:23:02;97606.31;;;31.12;51.96
41886;BME280;27567;43.084;25.616;2022-08-25T15:25:48;97598.88;;;31.28;51.04
41886;BME280;27567;43.084;25.616;2022-08-25T15:28:32;97597.47;;;31.06;50.56
41886;BME280;27567;43.084;25.616;2022-08-25T15:31:18;97598.72;;;30.93;50.23
41886;BME280;27567;43.084;25.616;2022-08-25T15:34:03;97600.34;;;30.94;52.48
41886;BME280;27567;43.084;25.616;2022-08-25T15:36:47;97591.09;;;31.18;50.07
41886;BME280;27567;43.084;25.616;2022-08-25T15:39:33;97592.22;;;31.65;48.08
41886;BME280;27567;43.084;25.616;2022-08-25T15:42:17;97588.63;;;32.16;44.79
41886;BME280;27567;43.084;25.616;2022-08-25T15:45:01;97581.16;;;32.01;44.46
41886;BME280;27567;43.084;25.616;2022-08-25T15:47:45;97578.97;;;32.10;44.22
41886;BME280;27567;43.084;25.616;2022-08-25T15:50:29;97575.59;;;31.65;46.74
41886;BME280;27567;43.084;25.616;2022-08-25T15:53:13;97588.72;;;31.68;47.62
41886;BME280;27567;43.084;25.616;2022-08-25T15:55:57;97588.50;;;31.93;46.59
41886;BME280;27567;43.084;25.616;2022-08-25T15:58:41;97598.66;;;32.05;45.74
41886;BME280;27567;43.084;25.616;2022-08-25T16:01:26;97589.91;;;32.03;46.20